Terminal Aerodrome Forecast
Issued by NWS

Home | Current Version | Previous Version | Text Only | Print | Product List | Glossary On
Versions: 1 2 3 4 5 6 7 8 9 10 11 12 13 14 15 16 17 18
396
FTUS43 KDTX 031720
TAFDET
TAF
KDET 031720Z 0318/0418 27008KT P6SM SCT022 OVC035
     FM032200 24006KT P6SM BKN030
     FM040900 22005KT P6SM SCT030 OVC150
     FM041400 16005KT P6SM BKN040 OVC100=

USA.gov is the U.S. government's official web portal to all federal, state and local government web resources and services.